Time;durP1;ratioP1;P1;durP2;ratioP2;P2;SDS_P1;SDS_P2;PMS_P1;PMS_P2;Temp;Humidity;BMP_temperature;BMP_pressure;BME280_temperature;BME280_humidity;BME280_pressure;Samples;Min_cycle;Max_cycle;Signal;HPM_P1;HPM_P2
2021/08/30 00:00:35;;;;;;;;;;;15.40;95.50;;;;;;5034537;28;20373;-61
2021/08/30 00:03:00;;;;;;;;;;;15.30;95.50;;;;;;5034611;28;20397;-61
2021/08/30 00:05:26;;;;;;;;;;;15.30;95.60;;;;;;5034519;28;19923;-62
2021/08/30 00:07:52;;;;;;;;;;;15.30;95.70;;;;;;5034536;28;19939;-61
2021/08/30 00:10:18;;;;;;;;;;;15.30;95.80;;;;;;5034619;28;20369;-61
2021/08/30 00:12:43;;;;;;;;;;;15.40;95.90;;;;;;5034304;28;19917;-62
2021/08/30 00:15:10;;;;;;;;;;;15.40;95.90;;;;;;5034563;28;19917;-63
2021/08/30 00:17:35;;;;;;;;;;;15.40;95.90;;;;;;5016577;28;20286;-61
2021/08/30 00:20:01;;;;;;;;;;;15.40;95.90;;;;;;5034080;28;19925;-61
2021/08/30 00:22:26;;;;;;;;;;;15.40;96.00;;;;;;5034483;28;20377;-61
2021/08/30 00:24:52;;;;;;;;;;;15.50;96.10;;;;;;5000015;28;19924;-61
2021/08/30 00:27:17;;;;;;;;;;;15.50;96.10;;;;;;5033781;28;20440;-61
2021/08/30 00:29:43;;;;;;;;;;;15.60;96.10;;;;;;5034246;28;19971;-61
2021/08/30 00:32:08;;;;;;;;;;;15.60;96.00;;;;;;5034246;28;20008;-61
2021/08/30 00:34:34;;;;;;;;;;;15.60;96.10;;;;;;5033733;28;19944;-61
2021/08/30 00:36:59;;;;;;;;;;;15.70;96.10;;;;;;5033931;28;19924;-61
2021/08/30 00:39:25;;;;;;;;;;;15.70;96.10;;;;;;5034276;28;19917;-61
2021/08/30 00:41:54;;;;;;;;;;;15.70;96.10;;;;;;5033623;28;19987;-62
2021/08/30 00:44:21;;;;;;;;;;;15.70;96.10;;;;;;5033820;28;19971;-61
2021/08/30 00:46:46;;;;;;;;;;;15.70;96.00;;;;;;5033398;28;20038;-61
2021/08/30 00:49:12;;;;;;;;;;;15.70;95.90;;;;;;5033978;28;19917;-62
2021/08/30 00:51:37;;;;;;;;;;;15.70;95.80;;;;;;5016253;28;20350;-61
2021/08/30 00:54:03;;;;;;;;;;;15.60;95.90;;;;;;4999249;28;19924;-61
2021/08/30 00:56:29;;;;;;;;;;;15.60;96.10;;;;;;5033876;28;19943;-61
2021/08/30 00:58:55;;;;;;;;;;;15.60;96.20;;;;;;5033323;28;19973;-61
2021/08/30 01:01:21;;;;;;;;;;;15.70;96.20;;;;;;5033322;28;19918;-62
2021/08/30 01:03:47;;;;;;;;;;;15.70;96.20;;;;;;5033575;28;19917;-61
2021/08/30 01:06:12;;;;;;;;;;;15.70;96.20;;;;;;5033190;28;19921;-61
2021/08/30 01:08:41;;;;;;;;;;;15.70;96.20;;;;;;5033339;28;19924;-62
2021/08/30 01:11:12;;;;;;;;;;;15.70;96.20;;;;;;5033404;28;20012;-62
2021/08/30 01:13:39;;;;;;;;;;;15.70;96.10;;;;;;5033009;28;20332;-62
2021/08/30 01:16:07;;;;;;;;;;;15.70;96.10;;;;;;5033572;28;19952;-62
2021/08/30 01:18:33;;;;;;;;;;;15.70;96.20;;;;;;5032640;28;19968;-61
2021/08/30 01:21:03;;;;;;;;;;;15.70;96.30;;;;;;5033289;28;19945;-61
2021/08/30 01:23:29;;;;;;;;;;;15.70;96.20;;;;;;5033286;28;19917;-61
2021/08/30 01:25:57;;;;;;;;;;;15.70;96.20;;;;;;5032937;28;20293;-61
2021/08/30 01:28:23;;;;;;;;;;;15.70;96.20;;;;;;5032852;28;20003;-61
2021/08/30 01:30:53;;;;;;;;;;;15.70;96.30;;;;;;5032613;28;19928;-61
2021/08/30 01:33:21;;;;;;;;;;;15.80;96.40;;;;;;5033046;28;19924;-61
2021/08/30 01:35:46;;;;;;;;;;;15.70;96.30;;;;;;5032654;28;19924;-62
2021/08/30 01:38:12;;;;;;;;;;;15.70;96.40;;;;;;5031812;28;20348;-62
2021/08/30 01:40:38;;;;;;;;;;;15.80;96.40;;;;;;5033091;28;19917;-62
2021/08/30 01:43:04;;;;;;;;;;;15.80;96.40;;;;;;5032258;28;19917;-61
2021/08/30 01:45:31;;;;;;;;;;;15.80;96.40;;;;;;5033034;28;19921;-62
2021/08/30 01:47:58;;;;;;;;;;;15.80;96.40;;;;;;5014993;28;19917;-62
2021/08/30 01:50:24;;;;;;;;;;;15.80;96.40;;;;;;5032222;28;19921;-62
2021/08/30 01:52:50;;;;;;;;;;;15.80;96.40;;;;;;5032700;28;19917;-61
2021/08/30 02:00:51;;;;;;;;;;;15.80;96.30;;;;;;4991521;28;19921;-62
2021/08/30 02:03:17;;;;;;;;;;;15.80;96.40;;;;;;5032634;28;20393;-62
2021/08/30 02:05:43;;;;;;;;;;;15.20;96.20;;;;;;5032075;28;19945;-61
2021/08/30 02:08:09;;;;;;;;;;;15.80;96.30;;;;;;5032155;28;19923;-61
2021/08/30 02:10:34;;;;;;;;;;;15.80;96.30;;;;;;5032304;28;19917;-61
2021/08/30 02:13:00;;;;;;;;;;;15.80;96.20;;;;;;5031669;28;19917;-61
2021/08/30 02:15:25;;;;;;;;;;;15.80;96.10;;;;;;5032392;28;19921;-61
2021/08/30 02:17:54;;;;;;;;;;;15.70;96.00;;;;;;5031526;28;20008;-61
2021/08/30 02:20:24;;;;;;;;;;;15.60;96.00;;;;;;5032367;28;19917;-61
2021/08/30 02:22:49;;;;;;;;;;;15.60;96.30;;;;;;5032100;28;20004;-61
2021/08/30 02:25:17;;;;;;;;;;;15.60;96.40;;;;;;5031757;28;19960;-61
2021/08/30 02:27:59;;;;;;;;;;;15.60;96.50;;;;;;5031795;28;20381;-62
2021/08/30 02:30:30;;;;;;;;;;;15.60;96.50;;;;;;5031526;28;20405;-62
2021/08/30 02:32:58;;;;;;;;;;;15.60;96.50;;;;;;5031988;28;19948;-62
2021/08/30 02:35:25;;;;;;;;;;;15.60;96.50;;;;;;5031594;28;19957;-61
2021/08/30 02:37:52;;;;;;;;;;;15.70;96.50;;;;;;5031742;28;19917;-61
2021/08/30 02:40:18;;;;;;;;;;;15.70;96.50;;;;;;5031602;28;19917;-61
2021/08/30 02:42:45;;;;;;;;;;;15.70;96.50;;;;;;5031890;28;20432;-61
2021/08/30 02:45:11;;;;;;;;;;;15.70;96.30;;;;;;5085539;22;19987;-71
2021/08/30 02:47:38;;;;;;;;;;;15.70;96.40;;;;;;4996791;28;19914;-66
2021/08/30 02:50:04;;;;;;;;;;;15.70;96.40;;;;;;5031759;28;19949;-70
2021/08/30 02:52:30;;;;;;;;;;;15.70;96.50;;;;;;5031737;28;20349;-70
2021/08/30 02:54:56;;;;;;;;;;;15.70;96.40;;;;;;5013480;28;20288;-70
2021/08/30 02:57:22;;;;;;;;;;;15.70;96.40;;;;;;5031218;28;19917;-70
2021/08/30 02:59:51;;;;;;;;;;;15.70;96.40;;;;;;5031240;28;19917;-70
2021/08/30 03:02:21;;;;;;;;;;;15.60;96.30;;;;;;5031553;28;19917;-70
2021/08/30 03:04:46;;;;;;;;;;;15.60;95.90;;;;;;5031505;28;20384;-69
2021/08/30 03:07:12;;;;;;;;;;;15.50;96.10;;;;;;5012246;28;20008;-71
2021/08/30 03:09:38;;;;;;;;;;;15.40;96.10;;;;;;5007029;28;20373;-71
2021/08/30 03:12:05;;;;;;;;;;;15.40;96.10;;;;;;5031248;28;20292;-71
2021/08/30 03:14:31;;;;;;;;;;;15.30;96.10;;;;;;5030989;28;19917;-71
2021/08/30 03:16:58;;;;;;;;;;;15.30;96.20;;;;;;5031202;28;19924;-71
2021/08/30 03:19:25;;;;;;;;;;;15.20;96.20;;;;;;5030959;28;19949;-71
2021/08/30 03:21:50;;;;;;;;;;;15.20;96.40;;;;;;5031366;28;19924;-71
2021/08/30 03:24:19;;;;;;;;;;;15.20;96.50;;;;;;5031414;28;20000;-72
2021/08/30 03:26:45;;;;;;;;;;;15.20;96.50;;;;;;5030574;28;20331;-72
2021/08/30 03:29:11;;;;;;;;;;;15.20;96.50;;;;;;5031208;28;20365;-71
2021/08/30 03:31:38;;;;;;;;;;;15.20;96.60;;;;;;5013375;28;19928;-71
2021/08/30 03:34:04;;;;;;;;;;;15.20;96.70;;;;;;5013483;28;20335;-71
2021/08/30 03:36:30;;;;;;;;;;;15.20;96.70;;;;;;5031135;28;19921;-72
2021/08/30 03:38:56;;;;;;;;;;;15.30;96.70;;;;;;5030716;28;20000;-72
2021/08/30 03:41:22;;;;;;;;;;;15.30;96.70;;;;;;5031164;28;19921;-71
2021/08/30 03:43:49;;;;;;;;;;;15.30;96.70;;;;;;5031011;28;20028;-71
2021/08/30 03:46:14;;;;;;;;;;;15.30;96.70;;;;;;5030713;28;19917;-71
2021/08/30 03:48:40;;;;;;;;;;;15.30;96.60;;;;;;5013072;28;19933;-70
2021/08/30 03:51:06;;;;;;;;;;;15.40;96.70;;;;;;5031110;28;19921;-70
2021/08/30 03:53:34;;;;;;;;;;;15.40;96.70;;;;;;5030609;28;20385;-72
2021/08/30 03:56:00;;;;;;;;;;;15.40;96.70;;;;;;5031178;28;19967;-71
2021/08/30 03:58:26;;;;;;;;;;;15.40;96.60;;;;;;5012793;28;20442;-70
2021/08/30 04:00:53;;;;;;;;;;;15.30;96.40;;;;;;5033004;28;19996;-72
2021/08/30 04:03:20;;;;;;;;;;;15.30;96.50;;;;;;5034614;28;20296;-72
2021/08/30 04:05:46;;;;;;;;;;;15.30;96.60;;;;;;5034264;28;19921;-70
2021/08/30 04:08:12;;;;;;;;;;;15.30;96.60;;;;;;5034381;28;20373;-71
2021/08/30 04:10:37;;;;;;;;;;;15.30;96.70;;;;;;5034353;28;19928;-71
2021/08/30 04:13:04;;;;;;;;;;;15.30;96.70;;;;;;5033841;28;19917;-71
2021/08/30 04:15:30;;;;;;;;;;;15.30;96.70;;;;;;5034461;28;19925;-71
2021/08/30 04:17:56;;;;;;;;;;;15.30;96.70;;;;;;5033787;28;19918;-71
2021/08/30 04:20:21;;;;;;;;;;;15.20;96.50;;;;;;5034294;28;20031;-71
2021/08/30 04:22:47;;;;;;;;;;;15.20;96.50;;;;;;5016679;28;19921;-69
2021/08/30 04:25:13;;;;;;;;;;;15.20;96.50;;;;;;5033720;28;19957;-68
2021/08/30 04:27:39;;;;;;;;;;;15.10;96.50;;;;;;5034026;28;19963;-69
2021/08/30 04:30:04;;;;;;;;;;;15.10;96.60;;;;;;5033684;28;19944;-71
2021/08/30 04:32:33;;;;;;;;;;;15.10;96.60;;;;;;5027921;28;21051;-72
2021/08/30 04:35:01;;;;;;;;;;;15.10;96.60;;;;;;5023534;28;21549;-71
2021/08/30 04:37:26;;;;;;;;;;;15.10;96.80;;;;;;4996060;28;20024;-71
2021/08/30 04:39:52;;;;;;;;;;;15.10;96.90;;;;;;5014292;28;19917;-68
2021/08/30 04:42:18;;;;;;;;;;;15.10;97.00;;;;;;5014134;28;19917;-70
2021/08/30 04:44:43;;;;;;;;;;;15.20;97.00;;;;;;4995836;28;19922;-71
2021/08/30 04:47:09;;;;;;;;;;;15.20;96.90;;;;;;4996284;28;19923;-72
2021/08/30 04:49:34;;;;;;;;;;;15.30;96.90;;;;;;5021017;28;19960;-71
2021/08/30 04:52:00;;;;;;;;;;;15.30;96.90;;;;;;5007156;28;20944;-72
2021/08/30 04:54:26;;;;;;;;;;;15.30;97.00;;;;;;5021963;28;20579;-69
2021/08/30 04:56:51;;;;;;;;;;;15.30;97.00;;;;;;5006834;28;20290;-69
2021/08/30 04:59:17;;;;;;;;;;;15.40;97.10;;;;;;5023831;28;19924;-69
2021/08/30 05:01:42;;;;;;;;;;;15.40;97.10;;;;;;5024460;28;19917;-69
2021/08/30 05:04:08;;;;;;;;;;;15.40;97.10;;;;;;5019917;28;19988;-69
2021/08/30 05:06:34;;;;;;;;;;;15.40;97.10;;;;;;5009999;28;19917;-70
2021/08/30 05:08:59;;;;;;;;;;;15.50;97.10;;;;;;5015614;28;19917;-71
2021/08/30 05:11:25;;;;;;;;;;;15.50;97.10;;;;;;5032939;28;19921;-70
2021/08/30 05:13:50;;;;;;;;;;;15.60;97.10;;;;;;5033335;28;19924;-69
2021/08/30 05:16:16;;;;;;;;;;;15.60;97.10;;;;;;5033436;28;19917;-69
2021/08/30 05:18:41;;;;;;;;;;;15.70;97.10;;;;;;5032277;28;19925;-69
2021/08/30 05:21:07;;;;;;;;;;;15.70;97.10;;;;;;5033152;28;20352;-69
2021/08/30 05:23:33;;;;;;;;;;;15.70;97.10;;;;;;5032471;28;19933;-69
2021/08/30 05:25:59;;;;;;;;;;;15.90;97.30;;;;;;5033354;28;19979;-69
2021/08/30 05:28:24;;;;;;;;;;;16.00;97.50;;;;;;5032607;28;20332;-69
2021/08/30 05:30:50;;;;;;;;;;;16.20;97.60;;;;;;5032445;28;20059;-70
2021/08/30 05:33:16;;;;;;;;;;;16.40;97.60;;;;;;5015094;28;20357;-70
2021/08/30 05:35:41;;;;;;;;;;;16.40;97.30;;;;;;5032692;28;19921;-68
2021/08/30 05:38:07;;;;;;;;;;;16.40;97.00;;;;;;5030786;28;19918;-69
2021/08/30 05:40:32;;;;;;;;;;;16.40;96.90;;;;;;5031878;28;19947;-70
2021/08/30 05:42:58;;;;;;;;;;;16.30;96.90;;;;;;5032003;28;19917;-68
2021/08/30 05:45:24;;;;;;;;;;;16.30;96.90;;;;;;4995574;28;19929;-69
2021/08/30 05:47:49;;;;;;;;;;;16.30;97.00;;;;;;5031997;28;19917;-70
2021/08/30 05:50:15;;;;;;;;;;;16.40;97.10;;;;;;5014265;28;20388;-70
2021/08/30 05:52:40;;;;;;;;;;;16.40;97.10;;;;;;5032264;28;20366;-68
2021/08/30 05:55:06;;;;;;;;;;;16.50;97.20;;;;;;5026590;28;19917;-69
2021/08/30 05:57:31;;;;;;;;;;;16.60;97.30;;;;;;5031640;28;19956;-70
2021/08/30 05:59:57;;;;;;;;;;;16.80;97.30;;;;;;5020421;28;19924;-69
2021/08/30 06:02:22;;;;;;;;;;;16.80;97.20;;;;;;5027866;28;19924;-70
2021/08/30 06:04:48;;;;;;;;;;;17.00;97.20;;;;;;5014117;28;19976;-69
2021/08/30 06:07:13;;;;;;;;;;;17.00;97.10;;;;;;5012975;28;19917;-69
2021/08/30 06:09:39;;;;;;;;;;;17.10;97.10;;;;;;5022768;28;20376;-69
2021/08/30 06:12:05;;;;;;;;;;;17.20;97.10;;;;;;5020019;28;20349;-69
2021/08/30 06:14:30;;;;;;;;;;;17.50;97.50;;;;;;5030410;28;19923;-69
2021/08/30 06:16:56;;;;;;;;;;;18.00;98.40;;;;;;5012465;28;19918;-72
2021/08/30 06:19:21;;;;;;;;;;;19.00;99.10;;;;;;5016355;28;19987;-72
2021/08/30 06:21:47;;;;;;;;;;;19.70;98.10;;;;;;5004347;28;19924;-71
2021/08/30 06:24:13;;;;;;;;;;;19.70;95.80;;;;;;5020745;28;19918;-72
2021/08/30 06:26:38;;;;;;;;;;;19.50;95.00;;;;;;5020940;28;20443;-73
2021/08/30 06:29:04;;;;;;;;;;;19.10;95.10;;;;;;5021026;28;19955;-72
2021/08/30 06:31:30;;;;;;;;;;;18.90;95.00;;;;;;5020045;28;19964;-72
2021/08/30 06:33:56;;;;;;;;;;;18.70;95.30;;;;;;5023280;28;19927;-71
2021/08/30 06:36:22;;;;;;;;;;;18.70;95.50;;;;;;5020122;28;19917;-72
2021/08/30 06:38:47;;;;;;;;;;;18.60;95.20;;;;;;5003797;28;20472;-71
2021/08/30 06:41:13;;;;;;;;;;;18.50;95.30;;;;;;5022288;28;19917;-71
2021/08/30 06:43:38;;;;;;;;;;;18.60;95.10;;;;;;5019475;28;20404;-71
2021/08/30 06:46:04;;;;;;;;;;;18.50;95.10;;;;;;5021279;28;20431;-72
2021/08/30 06:48:30;;;;;;;;;;;18.60;94.80;;;;;;5021160;28;20380;-72
2021/08/30 06:50:56;;;;;;;;;;;18.60;94.80;;;;;;5019759;28;20452;-72
2021/08/30 06:53:21;;;;;;;;;;;18.60;94.80;;;;;;5020020;28;20020;-72
2021/08/30 06:55:47;;;;;;;;;;;18.90;95.20;;;;;;5021095;28;19917;-72
2021/08/30 06:58:12;;;;;;;;;;;19.80;97.50;;;;;;5021278;28;19918;-72
2021/08/30 07:00:38;;;;;;;;;;;22.10;99.40;;;;;;5019414;28;19922;-73
2021/08/30 07:03:04;;;;;;;;;;;24.30;97.50;;;;;;5021422;28;19968;-72
2021/08/30 07:05:29;;;;;;;;;;;26.30;93.60;;;;;;5021462;28;19918;-73
2021/08/30 07:07:55;;;;;;;;;;;27.60;91.70;;;;;;5002038;28;19918;-74
2021/08/30 07:10:21;;;;;;;;;;;28.00;89.50;;;;;;5021202;28;19917;-72
2021/08/30 07:12:46;;;;;;;;;;;27.50;82.90;;;;;;5019302;28;20369;-72
2021/08/30 07:15:12;;;;;;;;;;;26.00;78.70;;;;;;5003552;28;19928;-73
2021/08/30 07:17:37;;;;;;;;;;;25.10;79.50;;;;;;5019201;28;19922;-72
2021/08/30 07:20:03;;;;;;;;;;;24.40;82.40;;;;;;5020329;28;19917;-71
2021/08/30 07:22:29;;;;;;;;;;;24.20;82.20;;;;;;5020704;28;19933;-71
2021/08/30 07:24:55;;;;;;;;;;;25.40;86.70;;;;;;5019293;28;19918;-73
2021/08/30 07:27:20;;;;;;;;;;;26.50;87.40;;;;;;5021092;28;19979;-71
2021/08/30 07:29:46;;;;;;;;;;;27.90;82.40;;;;;;5020732;28;20377;-73
2021/08/30 07:32:11;;;;;;;;;;;29.30;80.40;;;;;;5019795;28;20377;-73
2021/08/30 07:34:37;;;;;;;;;;;30.20;74.10;;;;;;5021712;28;20007;-73
2021/08/30 07:37:03;;;;;;;;;;;29.40;68.50;;;;;;5023516;28;19918;-70
2021/08/30 07:39:28;;;;;;;;;;;28.10;66.00;;;;;;5006822;28;19917;-70
2021/08/30 07:41:54;;;;;;;;;;;26.70;65.10;;;;;;5025755;28;19929;-70
2021/08/30 07:44:20;;;;;;;;;;;24.60;65.30;;;;;;5025795;28;19921;-70
2021/08/30 07:46:45;;;;;;;;;;;24.10;66.40;;;;;;5025135;28;19953;-70
2021/08/30 07:49:11;;;;;;;;;;;23.40;68.80;;;;;;5023753;28;19917;-71
2021/08/30 07:51:38;;;;;;;;;;;23.30;71.60;;;;;;5024878;28;19929;-71
2021/08/30 07:54:04;;;;;;;;;;;22.80;68.80;;;;;;5021627;28;19917;-71
2021/08/30 07:56:31;;;;;;;;;;;22.60;69.20;;;;;;5004754;28;19917;-70
2021/08/30 07:58:56;;;;;;;;;;;22.10;69.80;;;;;;5024293;28;19917;-71
2021/08/30 08:01:22;;;;;;;;;;;21.60;70.40;;;;;;5023419;28;19927;-72
2021/08/30 08:03:47;;;;;;;;;;;20.90;71.80;;;;;;5023193;28;20007;-73
2021/08/30 08:06:13;;;;;;;;;;;20.80;72.60;;;;;;5023657;28;19967;-72
2021/08/30 08:08:39;;;;;;;;;;;20.90;74.30;;;;;;5024505;28;19953;-74
2021/08/30 08:11:08;;;;;;;;;;;21.20;76.70;;;;;;5005813;28;20023;-72
2021/08/30 08:13:34;;;;;;;;;;;22.30;75.70;;;;;;5023354;28;19917;-73
2021/08/30 08:16:00;;;;;;;;;;;22.40;76.10;;;;;;5023915;28;19943;-71
2021/08/30 08:18:25;;;;;;;;;;;22.80;75.40;;;;;;5022330;28;19921;-70
2021/08/30 08:20:51;;;;;;;;;;;22.80;73.30;;;;;;5023011;28;20373;-69
2021/08/30 08:23:17;;;;;;;;;;;21.70;70.00;;;;;;5023601;28;20320;-70
2021/08/30 08:25:43;;;;;;;;;;;21.70;70.40;;;;;;5021878;28;19917;-70
2021/08/30 08:28:08;;;;;;;;;;;21.20;71.20;;;;;;5022382;28;20432;-69
2021/08/30 08:30:34;;;;;;;;;;;20.70;72.00;;;;;;5021170;28;20405;-69
2021/08/30 08:33:00;;;;;;;;;;;20.30;72.80;;;;;;5023910;28;20362;-69
2021/08/30 08:35:25;;;;;;;;;;;20.00;73.20;;;;;;5023402;28;20367;-69
2021/08/30 08:37:51;;;;;;;;;;;19.80;74.10;;;;;;5022214;28;19921;-70
2021/08/30 08:40:17;;;;;;;;;;;19.80;74.60;;;;;;5022050;28;19924;-70
2021/08/30 08:42:43;;;;;;;;;;;19.80;76.00;;;;;;5023191;28;19938;-70
2021/08/30 08:45:10;;;;;;;;;;;20.10;76.40;;;;;;5021884;28;20386;-70
2021/08/30 08:47:37;;;;;;;;;;;20.20;76.40;;;;;;5021582;28;19995;-70
2021/08/30 08:50:07;;;;;;;;;;;20.10;75.20;;;;;;5057681;22;20357;-70
2021/08/30 08:52:34;;;;;;;;;;;20.00;75.60;;;;;;5042946;28;19988;-70
2021/08/30 08:55:00;;;;;;;;;;;20.00;76.00;;;;;;5024031;28;19944;-69
2021/08/30 08:57:26;;;;;;;;;;;19.90;76.20;;;;;;5043673;28;19939;-70
2021/08/30 08:59:55;;;;;;;;;;;19.90;76.20;;;;;;5042623;28;20433;-70
2021/08/30 09:02:24;;;;;;;;;;;19.80;76.30;;;;;;5007386;28;19925;-70
2021/08/30 09:04:53;;;;;;;;;;;19.70;76.60;;;;;;5009108;28;19919;-70
2021/08/30 09:07:19;;;;;;;;;;;19.60;76.90;;;;;;5006910;28;19957;-69
2021/08/30 09:09:46;;;;;;;;;;;19.60;77.20;;;;;;5040859;28;20396;-70
2021/08/30 09:12:19;;;;;;;;;;;19.50;77.30;;;;;;5007945;28;19928;-70
2021/08/30 09:14:45;;;;;;;;;;;19.50;77.50;;;;;;5042419;28;19917;-70
2021/08/30 09:17:11;;;;;;;;;;;19.50;78.10;;;;;;5041157;28;19913;-70
2021/08/30 09:19:37;;;;;;;;;;;19.50;77.60;;;;;;5041025;28;19917;-69
2021/08/30 09:22:04;;;;;;;;;;;19.30;77.90;;;;;;5008436;28;20364;-70
2021/08/30 09:24:29;;;;;;;;;;;19.30;77.80;;;;;;5041170;28;20344;-70
2021/08/30 09:26:56;;;;;;;;;;;19.20;78.20;;;;;;5040782;28;19917;-70
2021/08/30 09:29:26;;;;;;;;;;;19.10;77.80;;;;;;5042351;28;19960;-69
2021/08/30 09:32:04;;;;;;;;;;;19.00;78.20;;;;;;5040916;28;19921;-70
2021/08/30 09:34:30;;;;;;;;;;;18.90;78.20;;;;;;5038107;28;19922;-69
2021/08/30 09:36:56;;;;;;;;;;;18.80;78.70;;;;;;5040968;28;20338;-69
2021/08/30 09:39:21;;;;;;;;;;;18.80;79.10;;;;;;5007687;28;20016;-69
2021/08/30 09:41:47;;;;;;;;;;;18.80;79.50;;;;;;5036970;28;19968;-70
2021/08/30 09:44:13;;;;;;;;;;;18.80;79.30;;;;;;5033014;28;20373;-70
2021/08/30 09:46:38;;;;;;;;;;;18.80;79.00;;;;;;5013323;28;19990;-70
2021/08/30 09:49:07;;;;;;;;;;;18.70;79.60;;;;;;4998501;28;20012;-70
2021/08/30 09:51:39;;;;;;;;;;;18.70;80.00;;;;;;5020104;28;19921;-70
2021/08/30 09:54:06;;;;;;;;;;;18.80;80.20;;;;;;5022392;28;19921;-70
2021/08/30 09:56:38;;;;;;;;;;;18.80;80.50;;;;;;5041509;28;19968;-70
2021/08/30 09:59:05;;;;;;;;;;;18.80;79.40;;;;;;5022989;28;20285;-70
2021/08/30 10:01:31;;;;;;;;;;;18.80;79.80;;;;;;5046977;28;19920;-70
2021/08/30 10:03:57;;;;;;;;;;;18.70;79.80;;;;;;5051732;28;20471;-69
2021/08/30 10:06:23;;;;;;;;;;;18.70;80.00;;;;;;5052252;28;20003;-70
2021/08/30 10:08:48;;;;;;;;;;;18.70;80.30;;;;;;5051909;28;19917;-68
2021/08/30 10:11:14;;;;;;;;;;;18.70;80.80;;;;;;5051674;28;20006;-70
2021/08/30 10:13:41;;;;;;;;;;;18.90;81.70;;;;;;5052234;28;19924;-70
2021/08/30 10:16:07;;;;;;;;;;;19.30;82.10;;;;;;5052079;28;20007;-70
2021/08/30 10:18:33;;;;;;;;;;;19.60;81.50;;;;;;5031549;28;19956;-70
2021/08/30 10:20:58;;;;;;;;;;;20.00;81.80;;;;;;5027329;28;19917;-70
2021/08/30 10:23:33;;;;;;;;;;;20.10;80.40;;;;;;5052028;28;19956;-70
2021/08/30 10:25:59;;;;;;;;;;;20.00;79.10;;;;;;5014576;28;19936;-69
2021/08/30 10:28:36;;;;;;;;;;;19.90;78.50;;;;;;5029627;28;19924;-70
2021/08/30 10:31:12;;;;;;;;;;;19.60;78.90;;;;;;5029856;28;19963;-69
2021/08/30 10:33:38;;;;;;;;;;;19.50;79.10;;;;;;5030910;28;20503;-70
2021/08/30 10:36:11;;;;;;;;;;;19.40;79.60;;;;;;5012718;28;20028;-70
2021/08/30 10:38:36;;;;;;;;;;;19.40;78.60;;;;;;5030161;28;19943;-69
2021/08/30 10:41:12;;;;;;;;;;;19.30;78.90;;;;;;5012467;28;20440;-69
2021/08/30 10:43:41;;;;;;;;;;;19.30;79.40;;;;;;5031043;28;19917;-70
2021/08/30 10:46:12;;;;;;;;;;;19.40;80.50;;;;;;4996462;28;19921;-69
2021/08/30 10:48:39;;;;;;;;;;;20.00;82.70;;;;;;5029675;28;20000;-69
2021/08/30 10:51:11;;;;;;;;;;;21.50;83.90;;;;;;5030497;28;20563;-70
2021/08/30 10:53:37;;;;;;;;;;;23.00;83.00;;;;;;5030806;28;19925;-70
2021/08/30 10:56:07;;;;;;;;;;;24.00;80.40;;;;;;5030840;28;20340;-70
2021/08/30 10:58:42;;;;;;;;;;;24.20;76.60;;;;;;5012565;28;19917;-70
2021/08/30 11:01:12;;;;;;;;;;;23.80;73.30;;;;;;5030423;28;19917;-70
2021/08/30 11:03:39;;;;;;;;;;;23.20;71.90;;;;;;5012586;28;19924;-70
2021/08/30 11:06:06;;;;;;;;;;;22.70;71.20;;;;;;5015160;28;19960;-69
2021/08/30 11:08:33;;;;;;;;;;;22.10;71.40;;;;;;5029563;28;19964;-69
2021/08/30 11:11:09;;;;;;;;;;;21.60;71.10;;;;;;5029610;28;19925;-70
2021/08/30 11:13:34;;;;;;;;;;;21.20;72.30;;;;;;5038842;28;19917;-69
2021/08/30 11:16:00;;;;;;;;;;;20.90;72.50;;;;;;5050020;28;19917;-70
2021/08/30 11:18:25;;;;;;;;;;;20.50;72.60;;;;;;5049699;28;19924;-70
2021/08/30 11:20:51;;;;;;;;;;;20.20;72.60;;;;;;5032492;28;19924;-69
2021/08/30 11:23:17;;;;;;;;;;;20.00;73.60;;;;;;5032065;28;19917;-70
2021/08/30 11:25:43;;;;;;;;;;;19.80;74.00;;;;;;5050544;28;19924;-70
2021/08/30 11:28:12;;;;;;;;;;;19.70;74.80;;;;;;5049335;28;20012;-70
2021/08/30 11:30:37;;;;;;;;;;;19.70;75.10;;;;;;5049707;28;19927;-70
2021/08/30 11:33:03;;;;;;;;;;;19.80;76.00;;;;;;5050280;28;19916;-67
2021/08/30 11:35:29;;;;;;;;;;;20.00;76.30;;;;;;5050724;28;19920;-70
2021/08/30 11:37:54;;;;;;;;;;;20.20;76.70;;;;;;5049007;28;19921;-69
2021/08/30 11:40:20;;;;;;;;;;;20.50;76.30;;;;;;5050165;28;19923;-70
2021/08/30 11:42:45;;;;;;;;;;;20.60;76.20;;;;;;5049461;28;19999;-70
2021/08/30 11:45:12;;;;;;;;;;;20.60;75.60;;;;;;5050344;28;19991;-69
2021/08/30 11:47:38;;;;;;;;;;;20.60;75.40;;;;;;5028166;28;19924;-70
2021/08/30 11:50:05;;;;;;;;;;;20.40;74.50;;;;;;5032099;28;19985;-69
2021/08/30 11:52:32;;;;;;;;;;;20.40;74.90;;;;;;5029604;28;19925;-70
2021/08/30 11:55:02;;;;;;;;;;;20.20;75.00;;;;;;5029715;28;19917;-70
2021/08/30 11:57:42;;;;;;;;;;;20.10;75.40;;;;;;4995406;28;20305;-70
2021/08/30 12:00:09;;;;;;;;;;;20.20;75.80;;;;;;5029425;28;20377;-69
2021/08/30 12:02:37;;;;;;;;;;;20.20;75.80;;;;;;4995666;28;19924;-69
2021/08/30 12:05:04;;;;;;;;;;;20.20;75.10;;;;;;5009414;28;19913;-68
2021/08/30 12:07:36;;;;;;;;;;;20.10;75.50;;;;;;5009515;28;19921;-69
2021/08/30 12:10:03;;;;;;;;;;;20.20;75.30;;;;;;4992803;28;19994;-69
2021/08/30 12:12:33;;;;;;;;;;;20.30;75.90;;;;;;5009628;28;19964;-69
2021/08/30 12:15:04;;;;;;;;;;;20.30;75.70;;;;;;5010541;28;19918;-70
2021/08/30 12:17:32;;;;;;;;;;;20.30;75.20;;;;;;5009898;28;19921;-70
2021/08/30 12:20:04;;;;;;;;;;;20.10;74.60;;;;;;5009515;28;19968;-70
2021/08/30 12:22:31;;;;;;;;;;;20.10;75.40;;;;;;5012783;28;19921;-69
2021/08/30 12:25:00;;;;;;;;;;;20.20;76.30;;;;;;5013418;28;19925;-69
2021/08/30 12:27:29;;;;;;;;;;;20.20;76.10;;;;;;4995520;28;19921;-70
2021/08/30 12:29:55;;;;;;;;;;;20.40;76.00;;;;;;4995606;28;20267;-70
2021/08/30 12:32:20;;;;;;;;;;;20.50;76.50;;;;;;5013369;28;19918;-70
2021/08/30 12:34:50;;;;;;;;;;;20.60;76.30;;;;;;4996547;28;20281;-68
2021/08/30 12:37:16;;;;;;;;;;;20.60;75.50;;;;;;4995162;28;19921;-70
2021/08/30 12:39:41;;;;;;;;;;;20.50;74.60;;;;;;5013410;28;19973;-69
2021/08/30 12:42:07;;;;;;;;;;;20.50;75.10;;;;;;5012879;28;19976;-68
2021/08/30 12:44:32;;;;;;;;;;;20.30;75.00;;;;;;5013306;28;20336;-69
2021/08/30 12:46:58;;;;;;;;;;;20.20;75.10;;;;;;5012948;28;20296;-69
2021/08/30 12:49:23;;;;;;;;;;;20.20;75.30;;;;;;4995299;28;19921;-69
2021/08/30 12:51:49;;;;;;;;;;;20.20;75.90;;;;;;5012564;28;19926;-69
2021/08/30 12:54:14;;;;;;;;;;;20.30;76.00;;;;;;5013361;28;19917;-69
2021/08/30 12:56:40;;;;;;;;;;;20.30;75.80;;;;;;5011978;28;19926;-69
2021/08/30 12:59:05;;;;;;;;;;;20.20;75.30;;;;;;5041149;28;20297;-69
2021/08/30 13:01:31;;;;;;;;;;;20.20;75.70;;;;;;5042441;28;19952;-69
2021/08/30 13:03:56;;;;;;;;;;;20.10;76.10;;;;;;5024081;28;20361;-69
2021/08/30 13:06:22;;;;;;;;;;;20.30;76.70;;;;;;5043133;28;19966;-68
2021/08/30 13:08:48;;;;;;;;;;;20.70;76.30;;;;;;5023446;28;20016;-69
2021/08/30 13:11:15;;;;;;;;;;;20.60;76.50;;;;;;5006760;28;19921;-69
2021/08/30 13:13:41;;;;;;;;;;;20.70;75.50;;;;;;5025471;28;20004;-69
2021/08/30 13:16:07;;;;;;;;;;;20.60;75.30;;;;;;5041273;28;20391;-70
2021/08/30 13:18:33;;;;;;;;;;;20.50;75.90;;;;;;5041362;28;19920;-70
2021/08/30 13:20:58;;;;;;;;;;;20.50;75.60;;;;;;5040697;28;20423;-69
2021/08/30 13:23:24;;;;;;;;;;;20.70;76.70;;;;;;5051052;28;19936;-70
2021/08/30 13:25:49;;;;;;;;;;;20.90;76.70;;;;;;5052442;28;20397;-69
2021/08/30 13:28:15;;;;;;;;;;;21.00;76.10;;;;;;5051637;28;19917;-69
2021/08/30 13:30:40;;;;;;;;;;;21.10;75.20;;;;;;5051515;28;19928;-69
2021/08/30 13:33:07;;;;;;;;;;;21.10;75.50;;;;;;5033305;28;19924;-69
2021/08/30 13:35:33;;;;;;;;;;;21.10;75.40;;;;;;5021289;28;19917;-69
2021/08/30 13:37:58;;;;;;;;;;;21.10;75.30;;;;;;5031814;28;19917;-69
2021/08/30 13:40:25;;;;;;;;;;;21.20;75.10;;;;;;5032254;28;19924;-69
2021/08/30 13:42:50;;;;;;;;;;;21.20;75.30;;;;;;5029928;28;20336;-69
2021/08/30 13:45:17;;;;;;;;;;;21.20;74.90;;;;;;5013851;28;19921;-69
2021/08/30 13:47:43;;;;;;;;;;;21.20;75.50;;;;;;5026782;28;20393;-70
2021/08/30 13:50:09;;;;;;;;;;;21.40;75.30;;;;;;5020142;28;19933;-69
2021/08/30 13:52:35;;;;;;;;;;;21.60;75.50;;;;;;4996469;28;19945;-70
2021/08/30 13:55:01;;;;;;;;;;;21.80;74.90;;;;;;5027863;28;20010;-68
2021/08/30 13:57:26;;;;;;;;;;;21.80;74.00;;;;;;5030648;28;19924;-70
2021/08/30 13:59:52;;;;;;;;;;;21.70;73.00;;;;;;5031397;28;19918;-69
2021/08/30 14:02:18;;;;;;;;;;;21.60;73.30;;;;;;5031108;28;19918;-69
2021/08/30 14:04:44;;;;;;;;;;;21.40;72.70;;;;;;5014753;28;19955;-68
2021/08/30 14:07:10;;;;;;;;;;;21.20;72.90;;;;;;5014316;28;20004;-69
2021/08/30 14:09:36;;;;;;;;;;;20.90;72.60;;;;;;5031734;28;19917;-69
2021/08/30 14:12:02;;;;;;;;;;;20.80;73.00;;;;;;5014292;28;20330;-69
2021/08/30 14:14:28;;;;;;;;;;;20.70;73.30;;;;;;5031823;28;20003;-69
2021/08/30 14:16:54;;;;;;;;;;;20.60;73.60;;;;;;5031548;28;19952;-69